sensor_id;sensor_type;location;lat;lon;timestamp;P1;durP1;ratioP1;P2;durP2;ratioP2
30000;SDS011;16845;48.670;9.000;2024-01-30T00:00:48;10.37;;;7.00;;
30000;SDS011;16845;48.670;9.000;2024-01-30T00:03:16;8.52;;;5.53;;
30000;SDS011;16845;48.670;9.000;2024-01-30T00:05:42;12.05;;;6.35;;
30000;SDS011;16845;48.670;9.000;2024-01-30T00:08:09;8.07;;;5.90;;
30000;SDS011;16845;48.670;9.000;2024-01-30T00:10:36;8.30;;;5.90;;
30000;SDS011;16845;48.670;9.000;2024-01-30T00:13:02;7.93;;;5.00;;
30000;SDS011;16845;48.670;9.000;2024-01-30T00:15:29;11.48;;;5.80;;
30000;SDS011;16845;48.670;9.000;2024-01-30T00:17:56;12.05;;;5.88;;
30000;SDS011;16845;48.670;9.000;2024-01-30T00:20:24;11.03;;;6.13;;
30000;SDS011;16845;48.670;9.000;2024-01-30T00:22:50;16.40;;;6.50;;
30000;SDS011;16845;48.670;9.000;2024-01-30T00:25:17;9.48;;;6.07;;
30000;SDS011;16845;48.670;9.000;2024-01-30T00:27:43;10.00;;;6.23;;
30000;SDS011;16845;48.670;9.000;2024-01-30T00:30:10;10.32;;;6.45;;
30000;SDS011;16845;48.670;9.000;2024-01-30T00:32:38;9.55;;;6.93;;
30000;SDS011;16845;48.670;9.000;2024-01-30T00:35:05;9.20;;;5.60;;
30000;SDS011;16845;48.670;9.000;2024-01-30T00:37:33;9.10;;;6.38;;
30000;SDS011;16845;48.670;9.000;2024-01-30T00:39:59;10.98;;;6.22;;
30000;SDS011;16845;48.670;9.000;2024-01-30T00:42:26;12.25;;;7.43;;
30000;SDS011;16845;48.670;9.000;2024-01-30T00:44:53;10.47;;;7.30;;
30000;SDS011;16845;48.670;9.000;2024-01-30T00:47:19;11.87;;;8.10;;
30000;SDS011;16845;48.670;9.000;2024-01-30T00:49:46;14.03;;;7.53;;
30000;SDS011;16845;48.670;9.000;2024-01-30T00:52:12;12.27;;;7.40;;
30000;SDS011;16845;48.670;9.000;2024-01-30T00:54:40;16.87;;;9.00;;
30000;SDS011;16845;48.670;9.000;2024-01-30T00:57:07;15.82;;;8.38;;
30000;SDS011;16845;48.670;9.000;2024-01-30T00:59:34;12.98;;;8.18;;
30000;SDS011;16845;48.670;9.000;2024-01-30T01:02:00;12.80;;;8.53;;
30000;SDS011;16845;48.670;9.000;2024-01-30T01:04:27;11.03;;;8.03;;
30000;SDS011;16845;48.670;9.000;2024-01-30T01:06:53;16.30;;;7.83;;
30000;SDS011;16845;48.670;9.000;2024-01-30T01:09:20;14.67;;;8.63;;
30000;SDS011;16845;48.670;9.000;2024-01-30T01:11:48;19.50;;;8.70;;
30000;SDS011;16845;48.670;9.000;2024-01-30T01:14:15;12.35;;;7.32;;
30000;SDS011;16845;48.670;9.000;2024-01-30T01:16:41;14.90;;;8.05;;
30000;SDS011;16845;48.670;9.000;2024-01-30T01:19:08;13.20;;;7.47;;
30000;SDS011;16845;48.670;9.000;2024-01-30T01:21:34;12.07;;;7.63;;
30000;SDS011;16845;48.670;9.000;2024-01-30T01:24:01;15.57;;;8.37;;
30000;SDS011;16845;48.670;9.000;2024-01-30T01:26:27;10.30;;;7.60;;
30000;SDS011;16845;48.670;9.000;2024-01-30T01:28:55;15.20;;;8.80;;
30000;SDS011;16845;48.670;9.000;2024-01-30T01:31:22;13.45;;;6.13;;
30000;SDS011;16845;48.670;9.000;2024-01-30T01:33:48;13.70;;;6.28;;
30000;SDS011;16845;48.670;9.000;2024-01-30T01:36:15;10.95;;;6.40;;
30000;SDS011;16845;48.670;9.000;2024-01-30T01:38:42;9.03;;;6.30;;
30000;SDS011;16845;48.670;9.000;2024-01-30T01:41:08;12.43;;;6.23;;
30000;SDS011;16845;48.670;9.000;2024-01-30T01:43:35;10.77;;;7.03;;
30000;SDS011;16845;48.670;9.000;2024-01-30T01:46:03;10.87;;;6.37;;
30000;SDS011;16845;48.670;9.000;2024-01-30T01:48:29;13.73;;;6.15;;
30000;SDS011;16845;48.670;9.000;2024-01-30T01:50:56;8.68;;;5.63;;
30000;SDS011;16845;48.670;9.000;2024-01-30T01:53:24;11.07;;;6.00;;
30000;SDS011;16845;48.670;9.000;2024-01-30T01:55:50;12.27;;;7.60;;
30000;SDS011;16845;48.670;9.000;2024-01-30T01:58:17;9.90;;;6.00;;
30000;SDS011;16845;48.670;9.000;2024-01-30T02:00:45;10.40;;;6.43;;
30000;SDS011;16845;48.670;9.000;2024-01-30T02:03:14;9.65;;;6.70;;
30000;SDS011;16845;48.670;9.000;2024-01-30T02:05:44;8.40;;;5.50;;
30000;SDS011;16845;48.670;9.000;2024-01-30T02:10:37;10.77;;;6.53;;
30000;SDS011;16845;48.670;9.000;2024-01-30T02:13:04;12.05;;;6.13;;
30000;SDS011;16845;48.670;9.000;2024-01-30T02:15:31;8.30;;;5.68;;
30000;SDS011;16845;48.670;9.000;2024-01-30T02:17:57;10.30;;;5.43;;
30000;SDS011;16845;48.670;9.000;2024-01-30T02:20:25;9.97;;;5.47;;
30000;SDS011;16845;48.670;9.000;2024-01-30T02:22:56;7.45;;;5.13;;
30000;SDS011;16845;48.670;9.000;2024-01-30T02:25:30;9.93;;;5.72;;
30000;SDS011;16845;48.670;9.000;2024-01-30T02:27:57;8.38;;;5.85;;
30000;SDS011;16845;48.670;9.000;2024-01-30T02:30:23;9.13;;;6.43;;
30000;SDS011;16845;48.670;9.000;2024-01-30T02:32:50;9.50;;;6.50;;
30000;SDS011;16845;48.670;9.000;2024-01-30T02:35:16;8.47;;;5.53;;
30000;SDS011;16845;48.670;9.000;2024-01-30T02:37:43;12.52;;;8.15;;
30000;SDS011;16845;48.670;9.000;2024-01-30T02:40:11;10.73;;;7.97;;
30000;SDS011;16845;48.670;9.000;2024-01-30T02:42:38;13.15;;;6.68;;
30000;SDS011;16845;48.670;9.000;2024-01-30T02:45:05;14.93;;;7.72;;
30000;SDS011;16845;48.670;9.000;2024-01-30T02:47:32;12.50;;;7.75;;
30000;SDS011;16845;48.670;9.000;2024-01-30T02:49:59;14.50;;;8.80;;
30000;SDS011;16845;48.670;9.000;2024-01-30T02:52:26;16.17;;;9.18;;
30000;SDS011;16845;48.670;9.000;2024-01-30T02:54:52;16.43;;;9.67;;
30000;SDS011;16845;48.670;9.000;2024-01-30T02:57:20;15.17;;;9.37;;
30000;SDS011;16845;48.670;9.000;2024-01-30T02:59:47;16.33;;;9.95;;
30000;SDS011;16845;48.670;9.000;2024-01-30T03:02:13;17.50;;;9.10;;
30000;SDS011;16845;48.670;9.000;2024-01-30T03:04:40;12.87;;;8.73;;
30000;SDS011;16845;48.670;9.000;2024-01-30T03:07:07;14.93;;;9.43;;
30000;SDS011;16845;48.670;9.000;2024-01-30T03:09:33;13.40;;;9.27;;
30000;SDS011;16845;48.670;9.000;2024-01-30T03:12:00;16.13;;;9.63;;
30000;SDS011;16845;48.670;9.000;2024-01-30T03:14:29;14.53;;;9.57;;
30000;SDS011;16845;48.670;9.000;2024-01-30T03:16:56;14.52;;;9.60;;
30000;SDS011;16845;48.670;9.000;2024-01-30T03:19:23;19.50;;;8.60;;
30000;SDS011;16845;48.670;9.000;2024-01-30T03:21:49;14.18;;;9.68;;
30000;SDS011;16845;48.670;9.000;2024-01-30T03:24:16;14.90;;;9.43;;
30000;SDS011;16845;48.670;9.000;2024-01-30T03:26:43;15.52;;;9.40;;
30000;SDS011;16845;48.670;9.000;2024-01-30T03:29:09;14.23;;;8.73;;
30000;SDS011;16845;48.670;9.000;2024-01-30T03:31:38;11.20;;;8.47;;
30000;SDS011;16845;48.670;9.000;2024-01-30T03:34:04;13.00;;;8.95;;
30000;SDS011;16845;48.670;9.000;2024-01-30T03:36:31;12.95;;;8.57;;
30000;SDS011;16845;48.670;9.000;2024-01-30T03:38:58;17.45;;;10.38;;
30000;SDS011;16845;48.670;9.000;2024-01-30T03:41:24;14.55;;;9.48;;
30000;SDS011;16845;48.670;9.000;2024-01-30T03:43:51;13.80;;;8.83;;
30000;SDS011;16845;48.670;9.000;2024-01-30T03:46:17;13.30;;;8.43;;
30000;SDS011;16845;48.670;9.000;2024-01-30T03:48:46;14.20;;;9.90;;
30000;SDS011;16845;48.670;9.000;2024-01-30T03:51:12;14.43;;;9.38;;
30000;SDS011;16845;48.670;9.000;2024-01-30T03:53:39;16.20;;;9.07;;
30000;SDS011;16845;48.670;9.000;2024-01-30T03:56:05;11.63;;;8.63;;
30000;SDS011;16845;48.670;9.000;2024-01-30T03:58:32;13.43;;;8.82;;
30000;SDS011;16845;48.670;9.000;2024-01-30T04:00:59;15.13;;;8.70;;
30000;SDS011;16845;48.670;9.000;2024-01-30T04:03:25;12.93;;;9.00;;
30000;SDS011;16845;48.670;9.000;2024-01-30T04:05:53;12.38;;;8.45;;
30000;SDS011;16845;48.670;9.000;2024-01-30T04:08:20;15.05;;;8.98;;
30000;SDS011;16845;48.670;9.000;2024-01-30T04:10:47;22.43;;;8.90;;
30000;SDS011;16845;48.670;9.000;2024-01-30T04:13:13;24.23;;;9.87;;
30000;SDS011;16845;48.670;9.000;2024-01-30T04:15:40;12.37;;;8.37;;
30000;SDS011;16845;48.670;9.000;2024-01-30T04:18:06;15.15;;;9.57;;
30000;SDS011;16845;48.670;9.000;2024-01-30T04:20:33;14.48;;;8.90;;
30000;SDS011;16845;48.670;9.000;2024-01-30T04:23:01;11.60;;;8.77;;
30000;SDS011;16845;48.670;9.000;2024-01-30T04:25:27;15.35;;;9.27;;
30000;SDS011;16845;48.670;9.000;2024-01-30T04:27:54;16.83;;;9.70;;
30000;SDS011;16845;48.670;9.000;2024-01-30T04:30:21;15.93;;;8.80;;
30000;SDS011;16845;48.670;9.000;2024-01-30T04:32:47;17.00;;;9.50;;
30000;SDS011;16845;48.670;9.000;2024-01-30T04:35:14;12.17;;;8.03;;
30000;SDS011;16845;48.670;9.000;2024-01-30T04:37:41;16.45;;;9.82;;
30000;SDS011;16845;48.670;9.000;2024-01-30T04:40:09;15.20;;;9.35;;
30000;SDS011;16845;48.670;9.000;2024-01-30T04:42:36;14.35;;;8.70;;
30000;SDS011;16845;48.670;9.000;2024-01-30T04:45:03;15.90;;;9.23;;
30000;SDS011;16845;48.670;9.000;2024-01-30T04:47:30;14.52;;;8.88;;
30000;SDS011;16845;48.670;9.000;2024-01-30T04:49:56;12.83;;;8.40;;
30000;SDS011;16845;48.670;9.000;2024-01-30T04:52:23;17.02;;;9.05;;
30000;SDS011;16845;48.670;9.000;2024-01-30T04:54:49;22.15;;;8.27;;
30000;SDS011;16845;48.670;9.000;2024-01-30T04:57:17;13.43;;;8.18;;
30000;SDS011;16845;48.670;9.000;2024-01-30T04:59:44;13.98;;;8.38;;
30000;SDS011;16845;48.670;9.000;2024-01-30T05:02:10;11.47;;;8.57;;
30000;SDS011;16845;48.670;9.000;2024-01-30T05:04:37;13.27;;;8.65;;
30000;SDS011;16845;48.670;9.000;2024-01-30T05:07:04;15.27;;;8.95;;
30000;SDS011;16845;48.670;9.000;2024-01-30T05:09:30;13.68;;;8.50;;
30000;SDS011;16845;48.670;9.000;2024-01-30T05:11:57;11.80;;;8.33;;
30000;SDS011;16845;48.670;9.000;2024-01-30T05:14:25;14.83;;;8.67;;
30000;SDS011;16845;48.670;9.000;2024-01-30T05:16:51;14.85;;;8.23;;
30000;SDS011;16845;48.670;9.000;2024-01-30T05:19:18;12.80;;;7.93;;
30000;SDS011;16845;48.670;9.000;2024-01-30T05:21:44;15.82;;;8.85;;
30000;SDS011;16845;48.670;9.000;2024-01-30T05:24:11;13.63;;;9.03;;
30000;SDS011;16845;48.670;9.000;2024-01-30T05:26:38;11.88;;;8.70;;
30000;SDS011;16845;48.670;9.000;2024-01-30T05:29:04;13.43;;;8.57;;
30000;SDS011;16845;48.670;9.000;2024-01-30T05:31:32;14.43;;;8.23;;
30000;SDS011;16845;48.670;9.000;2024-01-30T05:33:59;11.40;;;7.32;;
30000;SDS011;16845;48.670;9.000;2024-01-30T05:36:25;14.05;;;7.65;;
30000;SDS011;16845;48.670;9.000;2024-01-30T05:38:52;10.10;;;7.05;;
30000;SDS011;16845;48.670;9.000;2024-01-30T05:41:19;10.33;;;7.07;;
30000;SDS011;16845;48.670;9.000;2024-01-30T05:43:46;12.73;;;8.02;;
30000;SDS011;16845;48.670;9.000;2024-01-30T05:46:12;12.20;;;7.53;;
30000;SDS011;16845;48.670;9.000;2024-01-30T05:48:40;12.50;;;8.20;;
30000;SDS011;16845;48.670;9.000;2024-01-30T05:51:07;12.88;;;8.43;;
30000;SDS011;16845;48.670;9.000;2024-01-30T05:53:33;14.20;;;7.95;;
30000;SDS011;16845;48.670;9.000;2024-01-30T05:56:01;11.95;;;7.88;;
30000;SDS011;16845;48.670;9.000;2024-01-30T05:58:28;12.27;;;7.95;;
30000;SDS011;16845;48.670;9.000;2024-01-30T06:00:54;11.23;;;7.37;;
30000;SDS011;16845;48.670;9.000;2024-01-30T06:03:21;11.63;;;8.05;;
30000;SDS011;16845;48.670;9.000;2024-01-30T06:05:49;14.17;;;7.67;;
30000;SDS011;16845;48.670;9.000;2024-01-30T06:08:16;17.17;;;8.45;;
30000;SDS011;16845;48.670;9.000;2024-01-30T06:10:43;12.18;;;7.63;;
30000;SDS011;16845;48.670;9.000;2024-01-30T06:13:10;12.33;;;8.07;;
30000;SDS011;16845;48.670;9.000;2024-01-30T06:15:36;13.33;;;7.53;;
30000;SDS011;16845;48.670;9.000;2024-01-30T06:18:03;13.73;;;7.17;;
30000;SDS011;16845;48.670;9.000;2024-01-30T06:20:30;13.30;;;7.50;;
30000;SDS011;16845;48.670;9.000;2024-01-30T06:22:58;13.95;;;7.72;;
30000;SDS011;16845;48.670;9.000;2024-01-30T06:25:25;11.50;;;7.35;;
30000;SDS011;16845;48.670;9.000;2024-01-30T06:27:52;11.88;;;7.68;;
30000;SDS011;16845;48.670;9.000;2024-01-30T06:30:18;10.65;;;7.10;;
30000;SDS011;16845;48.670;9.000;2024-01-30T06:32:45;10.53;;;7.57;;
30000;SDS011;16845;48.670;9.000;2024-01-30T06:35:11;14.17;;;7.80;;
30000;SDS011;16845;48.670;9.000;2024-01-30T06:37:38;8.77;;;7.00;;
30000;SDS011;16845;48.670;9.000;2024-01-30T06:40:06;10.73;;;7.00;;
30000;SDS011;16845;48.670;9.000;2024-01-30T06:42:34;9.38;;;7.60;;
30000;SDS011;16845;48.670;9.000;2024-01-30T06:45:00;15.35;;;6.93;;
30000;SDS011;16845;48.670;9.000;2024-01-30T06:47:27;13.73;;;7.67;;
30000;SDS011;16845;48.670;9.000;2024-01-30T06:49:53;11.07;;;6.77;;
30000;SDS011;16845;48.670;9.000;2024-01-30T06:52:20;9.00;;;6.47;;
30000;SDS011;16845;48.670;9.000;2024-01-30T06:54:47;12.80;;;8.40;;
30000;SDS011;16845;48.670;9.000;2024-01-30T06:57:14;14.67;;;8.10;;
30000;SDS011;16845;48.670;9.000;2024-01-30T06:59:41;14.68;;;7.25;;
30000;SDS011;16845;48.670;9.000;2024-01-30T07:02:07;11.13;;;7.40;;
30000;SDS011;16845;48.670;9.000;2024-01-30T07:04:34;9.88;;;6.50;;
30000;SDS011;16845;48.670;9.000;2024-01-30T07:07:01;12.65;;;7.07;;
30000;SDS011;16845;48.670;9.000;2024-01-30T07:09:28;13.63;;;7.55;;
30000;SDS011;16845;48.670;9.000;2024-01-30T07:11:54;9.70;;;6.97;;
30000;SDS011;16845;48.670;9.000;2024-01-30T07:14:22;11.27;;;7.37;;
30000;SDS011;16845;48.670;9.000;2024-01-30T07:16:49;10.65;;;6.65;;
30000;SDS011;16845;48.670;9.000;2024-01-30T07:19:15;11.17;;;6.93;;
30000;SDS011;16845;48.670;9.000;2024-01-30T07:21:42;15.10;;;7.32;;
30000;SDS011;16845;48.670;9.000;2024-01-30T07:24:08;11.73;;;7.30;;
30000;SDS011;16845;48.670;9.000;2024-01-30T07:26:35;10.47;;;6.77;;
30000;SDS011;16845;48.670;9.000;2024-01-30T07:29:01;11.30;;;6.23;;
30000;SDS011;16845;48.670;9.000;2024-01-30T07:31:29;11.53;;;5.80;;
30000;SDS011;16845;48.670;9.000;2024-01-30T07:33:59;10.73;;;6.18;;
30000;SDS011;16845;48.670;9.000;2024-01-30T07:36:26;15.38;;;6.28;;
30000;SDS011;16845;48.670;9.000;2024-01-30T07:38:52;9.80;;;6.93;;
30000;SDS011;16845;48.670;9.000;2024-01-30T07:41:19;10.97;;;6.70;;
30000;SDS011;16845;48.670;9.000;2024-01-30T07:43:45;6.90;;;4.93;;
30000;SDS011;16845;48.670;9.000;2024-01-30T07:46:12;8.83;;;5.40;;
30000;SDS011;16845;48.670;9.000;2024-01-30T07:48:40;6.77;;;4.13;;
30000;SDS011;16845;48.670;9.000;2024-01-30T07:51:06;8.70;;;5.32;;
30000;SDS011;16845;48.670;9.000;2024-01-30T07:53:33;8.57;;;5.17;;
30000;SDS011;16845;48.670;9.000;2024-01-30T07:56:00;17.70;;;4.93;;
30000;SDS011;16845;48.670;9.000;2024-01-30T07:58:26;7.70;;;5.22;;
30000;SDS011;16845;48.670;9.000;2024-01-30T08:00:53;7.80;;;5.67;;
30000;SDS011;16845;48.670;9.000;2024-01-30T08:03:20;7.10;;;5.20;;
30000;SDS011;16845;48.670;9.000;2024-01-30T08:05:47;9.75;;;5.43;;
30000;SDS011;16845;48.670;9.000;2024-01-30T08:08:14;17.73;;;5.70;;
30000;SDS011;16845;48.670;9.000;2024-01-30T08:10:40;7.93;;;5.30;;
30000;SDS011;16845;48.670;9.000;2024-01-30T08:13:07;9.02;;;6.10;;
30000;SDS011;16845;48.670;9.000;2024-01-30T08:15:34;8.10;;;6.50;;
30000;SDS011;16845;48.670;9.000;2024-01-30T08:18:00;11.77;;;7.65;;
30000;SDS011;16845;48.670;9.000;2024-01-30T08:20:27;15.65;;;8.52;;
30000;SDS011;16845;48.670;9.000;2024-01-30T08:22:55;18.83;;;8.93;;
30000;SDS011;16845;48.670;9.000;2024-01-30T08:25:22;12.30;;;8.68;;
30000;SDS011;16845;48.670;9.000;2024-01-30T08:27:48;15.00;;;8.93;;
30000;SDS011;16845;48.670;9.000;2024-01-30T08:30:15;13.13;;;8.07;;
30000;SDS011;16845;48.670;9.000;2024-01-30T08:32:42;12.77;;;7.57;;
30000;SDS011;16845;48.670;9.000;2024-01-30T08:35:08;17.13;;;8.90;;
30000;SDS011;16845;48.670;9.000;2024-01-30T08:37:35;12.18;;;8.38;;
30000;SDS011;16845;48.670;9.000;2024-01-30T08:40:07;14.00;;;8.23;;
30000;SDS011;16845;48.670;9.000;2024-01-30T08:42:34;12.40;;;7.70;;
30000;SDS011;16845;48.670;9.000;2024-01-30T08:45:01;16.40;;;9.13;;
30000;SDS011;16845;48.670;9.000;2024-01-30T08:47:27;9.40;;;7.23;;
30000;SDS011;16845;48.670;9.000;2024-01-30T08:49:54;12.07;;;8.38;;
30000;SDS011;16845;48.670;9.000;2024-01-30T08:52:20;16.93;;;8.17;;
30000;SDS011;16845;48.670;9.000;2024-01-30T08:54:47;17.50;;;8.93;;
30000;SDS011;16845;48.670;9.000;2024-01-30T08:57:15;15.77;;;9.03;;
30000;SDS011;16845;48.670;9.000;2024-01-30T08:59:41;13.15;;;7.82;;
30000;SDS011;16845;48.670;9.000;2024-01-30T09:02:08;13.85;;;8.30;;
30000;SDS011;16845;48.670;9.000;2024-01-30T09:04:38;15.18;;;9.00;;
30000;SDS011;16845;48.670;9.000;2024-01-30T09:07:05;15.70;;;7.57;;
30000;SDS011;16845;48.670;9.000;2024-01-30T09:09:32;13.25;;;7.45;;
30000;SDS011;16845;48.670;9.000;2024-01-30T09:11:58;14.55;;;8.25;;
30000;SDS011;16845;48.670;9.000;2024-01-30T09:14:26;11.80;;;7.03;;
30000;SDS011;16845;48.670;9.000;2024-01-30T09:16:53;12.50;;;6.35;;
30000;SDS011;16845;48.670;9.000;2024-01-30T09:19:19;9.57;;;5.88;;
30000;SDS011;16845;48.670;9.000;2024-01-30T09:21:46;7.87;;;5.67;;
30000;SDS011;16845;48.670;9.000;2024-01-30T09:24:12;9.63;;;5.55;;
30000;SDS011;16845;48.670;9.000;2024-01-30T09:26:39;11.43;;;6.35;;
30000;SDS011;16845;48.670;9.000;2024-01-30T09:29:05;7.05;;;5.45;;
30000;SDS011;16845;48.670;9.000;2024-01-30T09:31:33;9.60;;;6.77;;
30000;SDS011;16845;48.670;9.000;2024-01-30T09:34:00;9.38;;;6.57;;
30000;SDS011;16845;48.670;9.000;2024-01-30T09:36:27;14.18;;;8.88;;
30000;SDS011;16845;48.670;9.000;2024-01-30T09:38:54;11.97;;;7.73;;
30000;SDS011;16845;48.670;9.000;2024-01-30T09:41:20;13.63;;;7.20;;
30000;SDS011;16845;48.670;9.000;2024-01-30T09:43:50;22.48;;;8.70;;
30000;SDS011;16845;48.670;9.000;2024-01-30T09:46:17;18.75;;;8.13;;
30000;SDS011;16845;48.670;9.000;2024-01-30T09:48:46;18.42;;;8.82;;
30000;SDS011;16845;48.670;9.000;2024-01-30T09:51:13;14.70;;;8.82;;
30000;SDS011;16845;48.670;9.000;2024-01-30T09:53:41;10.45;;;6.72;;
30000;SDS011;16845;48.670;9.000;2024-01-30T09:56:08;11.68;;;6.90;;
30000;SDS011;16845;48.670;9.000;2024-01-30T09:58:35;12.70;;;5.13;;
30000;SDS011;16845;48.670;9.000;2024-01-30T10:01:01;10.40;;;4.90;;
30000;SDS011;16845;48.670;9.000;2024-01-30T10:03:28;20.45;;;8.30;;
30000;SDS011;16845;48.670;9.000;2024-01-30T10:05:56;7.00;;;4.83;;
30000;SDS011;16845;48.670;9.000;2024-01-30T10:08:23;15.93;;;7.60;;
30000;SDS011;16845;48.670;9.000;2024-01-30T10:10:52;11.50;;;5.25;;
30000;SDS011;16845;48.670;9.000;2024-01-30T10:13:18;8.30;;;4.60;;
30000;SDS011;16845;48.670;9.000;2024-01-30T10:15:45;8.10;;;4.68;;
30000;SDS011;16845;48.670;9.000;2024-01-30T10:18:13;5.20;;;3.67;;
30000;SDS011;16845;48.670;9.000;2024-01-30T10:20:40;5.15;;;3.75;;
30000;SDS011;16845;48.670;9.000;2024-01-30T10:23:08;5.45;;;3.92;;
30000;SDS011;16845;48.670;9.000;2024-01-30T10:25:35;7.32;;;3.22;;
30000;SDS011;16845;48.670;9.000;2024-01-30T10:28:01;5.30;;;3.27;;
30000;SDS011;16845;48.670;9.000;2024-01-30T10:30:28;7.15;;;2.95;;
30000;SDS011;16845;48.670;9.000;2024-01-30T10:32:55;7.60;;;3.03;;
30000;SDS011;16845;48.670;9.000;2024-01-30T10:35:22;4.88;;;2.60;;
30000;SDS011;16845;48.670;9.000;2024-01-30T10:37:48;7.60;;;3.00;;
30000;SDS011;16845;48.670;9.000;2024-01-30T10:40:16;3.73;;;2.73;;
30000;SDS011;16845;48.670;9.000;2024-01-30T10:42:47;4.95;;;2.75;;
30000;SDS011;16845;48.670;9.000;2024-01-30T10:45:18;3.63;;;2.47;;
30000;SDS011;16845;48.670;9.000;2024-01-30T10:47:48;4.43;;;2.30;;
30000;SDS011;16845;48.670;9.000;2024-01-30T10:50:15;6.28;;;2.80;;
30000;SDS011;16845;48.670;9.000;2024-01-30T10:52:42;4.18;;;3.15;;
30000;SDS011;16845;48.670;9.000;2024-01-30T10:55:09;5.20;;;2.80;;
30000;SDS011;16845;48.670;9.000;2024-01-30T10:57:37;3.28;;;2.63;;
30000;SDS011;16845;48.670;9.000;2024-01-30T11:00:05;3.83;;;2.70;;
30000;SDS011;16845;48.670;9.000;2024-01-30T11:02:34;3.65;;;2.38;;
30000;SDS011;16845;48.670;9.000;2024-01-30T11:05:01;3.97;;;2.67;;
30000;SDS011;16845;48.670;9.000;2024-01-30T11:07:28;3.83;;;2.70;;
30000;SDS011;16845;48.670;9.000;2024-01-30T11:09:59;7.38;;;2.55;;
30000;SDS011;16845;48.670;9.000;2024-01-30T11:12:27;4.25;;;2.45;;
30000;SDS011;16845;48.670;9.000;2024-01-30T11:15:05;3.53;;;2.33;;
30000;SDS011;16845;48.670;9.000;2024-01-30T11:17:39;4.10;;;3.05;;
30000;SDS011;16845;48.670;9.000;2024-01-30T11:20:10;5.13;;;2.67;;
30000;SDS011;16845;48.670;9.000;2024-01-30T11:22:37;4.53;;;2.72;;
30000;SDS011;16845;48.670;9.000;2024-01-30T11:25:04;4.80;;;2.78;;
30000;SDS011;16845;48.670;9.000;2024-01-30T11:27:31;5.75;;;3.13;;
30000;SDS011;16845;48.670;9.000;2024-01-30T11:30:00;5.57;;;3.85;;
30000;SDS011;16845;48.670;9.000;2024-01-30T11:32:29;9.07;;;2.78;;
30000;SDS011;16845;48.670;9.000;2024-01-30T11:34:55;4.65;;;2.50;;
30000;SDS011;16845;48.670;9.000;2024-01-30T11:37:23;4.22;;;2.70;;
30000;SDS011;16845;48.670;9.000;2024-01-30T11:39:52;4.97;;;2.90;;
30000;SDS011;16845;48.670;9.000;2024-01-30T11:42:21;5.18;;;2.67;;
30000;SDS011;16845;48.670;9.000;2024-01-30T11:44:49;4.72;;;2.30;;
30000;SDS011;16845;48.670;9.000;2024-01-30T11:47:16;3.60;;;2.55;;
30000;SDS011;16845;48.670;9.000;2024-01-30T11:49:44;7.97;;;2.88;;
30000;SDS011;16845;48.670;9.000;2024-01-30T11:52:11;6.70;;;2.50;;
30000;SDS011;16845;48.670;9.000;2024-01-30T11:54:39;4.53;;;2.95;;
30000;SDS011;16845;48.670;9.000;2024-01-30T11:57:06;4.43;;;2.30;;
30000;SDS011;16845;48.670;9.000;2024-01-30T11:59:32;4.13;;;2.63;;
30000;SDS011;16845;48.670;9.000;2024-01-30T12:01:59;6.05;;;2.85;;
30000;SDS011;16845;48.670;9.000;2024-01-30T12:04:27;5.97;;;3.22;;
30000;SDS011;16845;48.670;9.000;2024-01-30T12:06:56;4.60;;;2.50;;
30000;SDS011;16845;48.670;9.000;2024-01-30T12:09:22;8.90;;;2.92;;
30000;SDS011;16845;48.670;9.000;2024-01-30T12:11:49;3.83;;;2.60;;
30000;SDS011;16845;48.670;9.000;2024-01-30T12:14:16;7.55;;;2.65;;
30000;SDS011;16845;48.670;9.000;2024-01-30T12:16:43;5.50;;;2.40;;
30000;SDS011;16845;48.670;9.000;2024-01-30T12:19:09;4.40;;;2.95;;
30000;SDS011;16845;48.670;9.000;2024-01-30T12:21:37;7.17;;;2.73;;
30000;SDS011;16845;48.670;9.000;2024-01-30T12:24:06;3.72;;;2.40;;
30000;SDS011;16845;48.670;9.000;2024-01-30T12:26:33;4.18;;;2.45;;
30000;SDS011;16845;48.670;9.000;2024-01-30T12:28:59;5.77;;;2.90;;
30000;SDS011;16845;48.670;9.000;2024-01-30T12:31:26;4.68;;;2.50;;
30000;SDS011;16845;48.670;9.000;2024-01-30T12:33:53;3.03;;;2.40;;
30000;SDS011;16845;48.670;9.000;2024-01-30T12:36:20;3.33;;;2.33;;
30000;SDS011;16845;48.670;9.000;2024-01-30T12:38:47;2.95;;;2.40;;
30000;SDS011;16845;48.670;9.000;2024-01-30T12:41:15;4.83;;;2.50;;
30000;SDS011;16845;48.670;9.000;2024-01-30T12:43:42;4.68;;;2.28;;
30000;SDS011;16845;48.670;9.000;2024-01-30T12:46:09;7.00;;;2.90;;
30000;SDS011;16845;48.670;9.000;2024-01-30T12:48:35;5.03;;;2.75;;
30000;SDS011;16845;48.670;9.000;2024-01-30T12:51:02;6.13;;;2.93;;
30000;SDS011;16845;48.670;9.000;2024-01-30T12:53:29;5.17;;;3.03;;
30000;SDS011;16845;48.670;9.000;2024-01-30T12:55:55;3.37;;;2.70;;
30000;SDS011;16845;48.670;9.000;2024-01-30T12:58:24;5.07;;;2.40;;
30000;SDS011;16845;48.670;9.000;2024-01-30T13:00:51;4.50;;;2.97;;
30000;SDS011;16845;48.670;9.000;2024-01-30T13:03:18;5.22;;;2.55;;
30000;SDS011;16845;48.670;9.000;2024-01-30T13:05:44;4.35;;;2.65;;
30000;SDS011;16845;48.670;9.000;2024-01-30T13:08:11;4.20;;;2.47;;
30000;SDS011;16845;48.670;9.000;2024-01-30T13:10:38;3.43;;;2.50;;
30000;SDS011;16845;48.670;9.000;2024-01-30T13:13:04;3.70;;;2.43;;
30000;SDS011;16845;48.670;9.000;2024-01-30T13:15:38;7.95;;;2.65;;
30000;SDS011;16845;48.670;9.000;2024-01-30T13:18:05;7.28;;;2.42;;
30000;SDS011;16845;48.670;9.000;2024-01-30T13:20:32;3.80;;;2.88;;
30000;SDS011;16845;48.670;9.000;2024-01-30T13:22:59;3.78;;;2.40;;
30000;SDS011;16845;48.670;9.000;2024-01-30T13:25:25;3.03;;;2.47;;
30000;SDS011;16845;48.670;9.000;2024-01-30T13:27:52;3.95;;;2.70;;
30000;SDS011;16845;48.670;9.000;2024-01-30T13:30:19;5.80;;;2.47;;
30000;SDS011;16845;48.670;9.000;2024-01-30T13:32:47;4.90;;;2.90;;
30000;SDS011;16845;48.670;9.000;2024-01-30T13:35:13;3.20;;;2.10;;
30000;SDS011;16845;48.670;9.000;2024-01-30T13:37:40;4.25;;;2.63;;
30000;SDS011;16845;48.670;9.000;2024-01-30T13:40:07;2.63;;;2.22;;
30000;SDS011;16845;48.670;9.000;2024-01-30T13:42:38;5.18;;;2.83;;
30000;SDS011;16845;48.670;9.000;2024-01-30T13:45:05;3.37;;;2.23;;
30000;SDS011;16845;48.670;9.000;2024-01-30T13:47:32;4.55;;;2.65;;
30000;SDS011;16845;48.670;9.000;2024-01-30T13:50:00;4.33;;;2.87;;
30000;SDS011;16845;48.670;9.000;2024-01-30T13:52:26;4.88;;;2.55;;
30000;SDS011;16845;48.670;9.000;2024-01-30T13:55:00;6.00;;;2.78;;
30000;SDS011;16845;48.670;9.000;2024-01-30T13:57:27;3.83;;;2.80;;
30000;SDS011;16845;48.670;9.000;2024-01-30T13:59:54;6.40;;;2.70;;
30000;SDS011;16845;48.670;9.000;2024-01-30T14:02:20;5.43;;;3.00;;
30000;SDS011;16845;48.670;9.000;2024-01-30T14:04:47;8.93;;;2.80;;
30000;SDS011;16845;48.670;9.000;2024-01-30T14:07:15;3.23;;;2.60;;
30000;SDS011;16845;48.670;9.000;2024-01-30T14:09:41;4.47;;;2.53;;
30000;SDS011;16845;48.670;9.000;2024-01-30T14:12:08;5.53;;;2.77;;
30000;SDS011;16845;48.670;9.000;2024-01-30T14:14:34;5.07;;;2.97;;
30000;SDS011;16845;48.670;9.000;2024-01-30T14:17:01;2.73;;;2.23;;
30000;SDS011;16845;48.670;9.000;2024-01-30T14:19:28;5.03;;;3.05;;
30000;SDS011;16845;48.670;9.000;2024-01-30T14:21:54;4.70;;;2.87;;
30000;SDS011;16845;48.670;9.000;2024-01-30T14:24:22;4.78;;;2.45;;
30000;SDS011;16845;48.670;9.000;2024-01-30T14:26:49;5.07;;;2.67;;
30000;SDS011;16845;48.670;9.000;2024-01-30T14:29:15;5.20;;;3.23;;
30000;SDS011;16845;48.670;9.000;2024-01-30T14:31:42;5.05;;;3.25;;
30000;SDS011;16845;48.670;9.000;2024-01-30T14:34:08;5.40;;;2.85;;
30000;SDS011;16845;48.670;9.000;2024-01-30T14:36:35;7.20;;;3.00;;
30000;SDS011;16845;48.670;9.000;2024-01-30T14:39:01;5.10;;;2.85;;
30000;SDS011;16845;48.670;9.000;2024-01-30T14:41:29;4.13;;;3.08;;